Time;durP1;ratioP1;P1;durP2;ratioP2;P2;SDS_P1;SDS_P2;PMS_P1;PMS_P2;Temp;Humidity;BMP_temperature;BMP_pressure;BME280_temperature;BME280_humidity;BME280_pressure;Samples;Min_cycle;Max_cycle;Signal;HPM_P1;HPM_P2
2023/03/05 00:00:35;;;;;;;;;;;;;;;13.01;70.17;101947.00;1265999;23;676;-59
2023/03/05 00:01:26;;;;;;;;;;;;;;;13.02;70.00;101932.66;1265611;23;712;-60
2023/03/05 00:02:16;;;;;;;;;;;;;;;13.02;70.05;101942.50;1265749;23;665;-60
2023/03/05 00:03:07;;;;;;;;;;;;;;;13.03;70.06;101938.88;1266717;23;677;-61
2023/03/05 00:03:57;;;;;;;;;;;;;;;13.05;69.29;101942.34;1266575;23;653;-60
2023/03/05 00:04:48;;;;;;;;;;;;;;;13.03;70.14;101936.19;1266678;23;626;-61
2023/03/05 00:05:39;;;;;;;;;;;;;;;13.02;69.84;101932.66;1266485;23;727;-61
2023/03/05 00:06:29;;;;;;;;;;;;;;;13.02;70.12;101940.69;1265794;23;649;-61
2023/03/05 00:07:20;;;;;;;;;;;;;;;13.01;70.15;101930.94;1265923;23;633;-61
2023/03/05 00:08:10;;;;;;;;;;;;;;;13.01;70.01;101930.94;1266551;23;609;-61
2023/03/05 00:09:01;;;;;;;;;;;;;;;13.01;69.94;101930.06;1266629;23;676;-61
2023/03/05 00:09:51;;;;;;;;;;;;;;;13.01;69.54;101935.44;1266486;23;647;-61
2023/03/05 00:10:41;;;;;;;;;;;;;;;13.01;69.55;101927.41;1265853;23;1924;-60
2023/03/05 00:11:32;;;;;;;;;;;;;;;13.01;69.93;101930.06;1266551;23;692;-61
2023/03/05 00:12:22;;;;;;;;;;;;;;;13.00;69.85;101923.00;1265826;23;617;-61
2023/03/05 00:13:13;;;;;;;;;;;;;;;13.01;69.61;101920.22;1266535;23;664;-61
2023/03/05 00:14:04;;;;;;;;;;;;;;;13.01;69.63;101924.72;1265713;23;621;-60
2023/03/05 00:14:55;;;;;;;;;;;;;;;13.00;69.81;101918.50;1265581;23;602;-60
2023/03/05 00:15:45;;;;;;;;;;;;;;;13.01;70.18;101916.69;1266571;23;653;-60
2023/03/05 00:16:36;;;;;;;;;;;;;;;13.01;69.22;101925.59;1266011;23;629;-61
2023/03/05 00:17:26;;;;;;;;;;;;;;;13.01;70.15;101922.91;1265561;23;642;-61
2023/03/05 00:18:17;;;;;;;;;;;;;;;12.98;70.20;101923.09;1265921;23;672;-60
2023/03/05 00:19:07;;;;;;;;;;;;;;;13.00;69.51;101923.00;1266463;23;653;-60
2023/03/05 00:19:58;;;;;;;;;;;;;;;12.99;69.27;101931.97;1265925;23;642;-60
2023/03/05 00:20:48;;;;;;;;;;;;;;;12.99;69.73;101921.28;1265590;23;677;-60
2023/03/05 00:21:39;;;;;;;;;;;;;;;12.99;70.19;101922.13;1265873;23;684;-60
2023/03/05 00:22:29;;;;;;;;;;;;;;;12.99;69.87;101927.50;1265702;23;638;-60
2023/03/05 00:23:20;;;;;;;;;;;;;;;12.99;69.73;101921.28;1265928;23;645;-60
2023/03/05 00:24:10;;;;;;;;;;;;;;;12.98;70.06;101924.91;1265668;23;625;-60
2023/03/05 00:25:01;;;;;;;;;;;;;;;12.96;69.44;101935.69;1265940;23;653;-60
2023/03/05 00:25:51;;;;;;;;;;;;;;;12.98;69.43;101927.56;1266539;23;677;-60
2023/03/05 00:26:42;;;;;;;;;;;;;;;12.98;69.86;101930.25;1265953;23;787;-60
2023/03/05 00:27:32;;;;;;;;;;;;;;;12.97;70.02;101929.38;1266444;23;653;-60
2023/03/05 00:28:23;;;;;;;;;;;;;;;12.97;70.12;101928.53;1265763;23;634;-60
2023/03/05 00:29:13;;;;;;;;;;;;;;;12.95;69.34;101928.59;1265379;23;657;-60
2023/03/05 00:30:03;;;;;;;;;;;;;;;12.95;70.21;101928.59;1265702;23;661;-60
2023/03/05 00:30:54;;;;;;;;;;;;;;;12.95;70.16;101925.06;1265880;23;617;-60
2023/03/05 00:31:45;;;;;;;;;;;;;;;12.95;69.72;101925.06;1265692;23;622;-60
2023/03/05 00:32:35;;;;;;;;;;;;;;;12.94;69.99;101934.03;1265554;23;653;-60
2023/03/05 00:33:25;;;;;;;;;;;;;;;12.94;69.64;101932.22;1265295;23;677;-61
2023/03/05 00:34:16;;;;;;;;;;;;;;;12.95;69.50;101930.41;1265930;23;637;-60
2023/03/05 00:35:07;;;;;;;;;;;;;;;12.94;69.75;101928.69;1265620;23;938;-61
2023/03/05 00:36:00;;;;;;;;;;;;;;;12.93;70.01;101921.63;1265829;23;610;-60
2023/03/05 00:36:50;;;;;;;;;;;;;;;12.93;69.77;101926.97;1265599;23;1677;-60
2023/03/05 00:37:41;;;;;;;;;;;;;;;12.93;69.58;101919.81;1261056;23;613;-59
2023/03/05 00:38:31;;;;;;;;;;;;;;;12.93;69.96;101922.47;1260082;23;631;-60
2023/03/05 00:39:22;;;;;;;;;;;;;;;12.95;70.32;101925.06;1265731;23;654;-60
2023/03/05 00:40:12;;;;;;;;;;;;;;;12.94;69.63;101915.31;1265663;23;665;-60
2023/03/05 00:41:03;;;;;;;;;;;;;;;12.95;69.48;101925.94;1266024;23;677;-60
2023/03/05 00:41:53;;;;;;;;;;;;;;;12.96;69.53;101916.94;1266472;23;661;-60
2023/03/05 00:42:44;;;;;;;;;;;;;;;12.95;69.17;101923.25;1265799;23;688;-60
2023/03/05 00:43:34;;;;;;;;;;;;;;;12.95;69.62;101917.03;1265623;23;591;-60
2023/03/05 00:44:25;;;;;;;;;;;;;;;12.95;70.29;101922.38;1266499;23;777;-60
2023/03/05 00:45:15;;;;;;;;;;;;;;;12.94;69.47;101909.97;1266120;23;633;-60
2023/03/05 00:46:05;;;;;;;;;;;;;;;12.95;69.73;101922.38;1260806;23;668;-60
2023/03/05 00:46:56;;;;;;;;;;;;;;;12.94;69.60;101915.31;1254760;23;653;-60
2023/03/05 00:47:46;;;;;;;;;;;;;;;12.93;70.12;101916.25;1259188;23;654;-60
2023/03/05 00:48:37;;;;;;;;;;;;;;;12.94;70.22;101912.63;1265948;23;681;-60
2023/03/05 00:49:27;;;;;;;;;;;;;;;12.93;70.03;101906.41;1265413;23;641;-60
2023/03/05 00:50:18;;;;;;;;;;;;;;;12.93;69.42;101913.59;1265397;23;1948;-60
2023/03/05 00:51:08;;;;;;;;;;;;;;;12.92;69.26;101910.03;1265216;23;631;-60
2023/03/05 00:51:58;;;;;;;;;;;;;;;12.91;69.98;101913.66;1260707;23;602;-60
2023/03/05 00:52:49;;;;;;;;;;;;;;;12.91;69.41;101904.78;1259982;23;669;-60
2023/03/05 00:53:39;;;;;;;;;;;;;;;12.91;70.25;101902.09;1265407;23;657;-59
2023/03/05 00:54:30;;;;;;;;;;;;;;;12.91;70.06;101904.78;1266453;23;642;-59
2023/03/05 00:55:20;;;;;;;;;;;;;;;12.89;69.73;101904.91;1266337;23;625;-60
2023/03/05 00:56:11;;;;;;;;;;;;;;;12.89;69.43;101906.72;1266339;23;653;-61
2023/03/05 00:57:01;;;;;;;;;;;;;;;12.89;70.29;101909.38;1265148;23;621;-61
2023/03/05 00:57:51;;;;;;;;;;;;;;;12.88;69.61;101897.81;1266349;23;652;-61
2023/03/05 00:58:42;;;;;;;;;;;;;;;12.90;69.83;101897.75;1265699;23;605;-60
2023/03/05 00:59:32;;;;;;;;;;;;;;;12.88;70.09;101892.47;1265332;23;674;-61
2023/03/05 01:00:23;;;;;;;;;;;;;;;12.90;70.06;101898.56;1265458;23;609;-61
2023/03/05 01:01:13;;;;;;;;;;;;;;;12.88;69.21;101894.28;1260615;23;664;-60
2023/03/05 01:02:04;;;;;;;;;;;;;;;12.89;70.08;101893.34;1259848;23;632;-60
2023/03/05 01:02:54;;;;;;;;;;;;;;;12.89;69.31;101898.69;1266261;23;628;-60
2023/03/05 01:03:44;;;;;;;;;;;;;;;12.89;69.84;101896.00;1265641;23;634;-60
2023/03/05 01:04:35;;;;;;;;;;;;;;;12.87;70.06;101896.09;1266756;23;692;-60
2023/03/05 01:05:25;;;;;;;;;;;;;;;12.85;70.23;101892.66;1266488;23;601;-60
2023/03/05 01:06:16;;;;;;;;;;;;;;;12.84;69.79;101890.91;1260823;23;632;-60
2023/03/05 01:07:06;;;;;;;;;;;;;;;12.83;69.48;101892.72;1259994;23;635;-60
2023/03/05 01:07:56;;;;;;;;;;;;;;;12.84;70.12;101891.78;1265805;23;641;-60
2023/03/05 01:08:47;;;;;;;;;;;;;;;12.84;70.13;101891.78;1265468;23;660;-60
2023/03/05 01:09:37;;;;;;;;;;;;;;;12.85;70.04;101890.84;1265369;23;645;-59
2023/03/05 01:10:29;;;;;;;;;;;;;;;12.84;69.97;101881.09;1266343;23;1881;-60
2023/03/05 01:11:19;;;;;;;;;;;;;;;12.84;69.27;101882.91;1265256;23;637;-60
2023/03/05 01:12:09;;;;;;;;;;;;;;;12.83;69.40;101882.03;1265513;23;645;-60
2023/03/05 01:13:00;;;;;;;;;;;;;;;12.83;69.65;101881.16;1265715;23;633;-61
2023/03/05 01:13:50;;;;;;;;;;;;;;;12.84;69.99;101872.19;1266092;23;645;-60
2023/03/05 01:14:41;;;;;;;;;;;;;;;12.84;70.20;101875.72;1260798;23;617;-60
2023/03/05 01:15:31;;;;;;;;;;;;;;;12.83;70.49;101882.03;1259840;23;598;-60
2023/03/05 01:16:22;;;;;;;;;;;;;;;12.84;69.64;101878.41;1260498;23;689;-59
2023/03/05 01:17:12;;;;;;;;;;;;;;;12.84;69.48;101875.72;1260439;23;637;-61
2023/03/05 01:18:03;;;;;;;;;;;;;;;12.82;70.03;101872.28;1265421;23;655;-61
2023/03/05 01:18:53;;;;;;;;;;;;;;;12.83;69.33;101871.34;1265505;23;656;-61
2023/03/05 01:19:44;;;;;;;;;;;;;;;12.82;70.00;101869.59;1265505;23;629;-60
2023/03/05 01:20:34;;;;;;;;;;;;;;;12.84;69.75;101874.88;1260817;23;660;-61
2023/03/05 01:21:24;;;;;;;;;;;;;;;12.85;70.22;101874.78;1260115;23;784;-60
2023/03/05 01:22:15;;;;;;;;;;;;;;;12.85;69.41;101872.09;1265597;23;614;-60
2023/03/05 01:23:05;;;;;;;;;;;;;;;12.85;69.98;101872.09;1260721;23;645;-60
2023/03/05 01:23:56;;;;;;;;;;;;;;;12.84;69.19;101867.72;1259799;23;661;-60
2023/03/05 01:24:46;;;;;;;;;;;;;;;12.84;70.19;101864.16;1265664;23;599;-60
2023/03/05 01:25:37;;;;;;;;;;;;;;;12.82;70.27;101866.94;1266268;23;788;-60
2023/03/05 01:26:27;;;;;;;;;;;;;;;12.82;69.81;101863.41;1266207;23;649;-60
2023/03/05 01:27:17;;;;;;;;;;;;;;;12.81;69.38;101862.53;1266322;23;677;-60
2023/03/05 01:28:08;;;;;;;;;;;;;;;12.80;69.40;101866.16;1266238;23;652;-59
2023/03/05 01:28:58;;;;;;;;;;;;;;;12.80;69.46;101865.28;1265257;23;610;-60
2023/03/05 01:29:49;;;;;;;;;;;;;;;12.81;69.92;101869.69;1260981;23;633;-60
2023/03/05 01:30:39;;;;;;;;;;;;;;;12.81;70.24;101864.34;1259988;23;1877;-60
2023/03/05 01:31:30;;;;;;;;;;;;;;;12.79;69.61;101861.75;1264855;23;641;-60
2023/03/05 01:32:20;;;;;;;;;;;;;;;12.78;70.09;101860.03;1266454;23;661;-61
2023/03/05 01:33:10;;;;;;;;;;;;;;;12.78;69.92;101860.03;1266542;23;622;-60
2023/03/05 01:34:01;;;;;;;;;;;;;;;12.78;69.81;101865.38;1265607;23;638;-61
2023/03/05 01:34:51;;;;;;;;;;;;;;;12.79;69.92;101863.56;1265512;23;598;-61
2023/03/05 01:35:42;;;;;;;;;;;;;;;12.79;69.29;101856.41;1265883;23;651;-61
2023/03/05 01:36:32;;;;;;;;;;;;;;;12.80;69.87;101857.25;1265340;23;642;-60
2023/03/05 01:37:23;;;;;;;;;;;;;;;12.78;69.40;101860.03;1266227;23;681;-60
2023/03/05 01:38:13;;;;;;;;;;;;;;;12.78;69.42;101859.16;1266270;23;644;-61
2023/03/05 01:39:04;;;;;;;;;;;;;;;12.76;70.08;101851.22;1265216;23;626;-61
2023/03/05 01:39:54;;;;;;;;;;;;;;;12.76;69.69;101855.72;1265650;23;705;-61
2023/03/05 01:40:44;;;;;;;;;;;;;;;12.76;70.12;101855.72;1260639;23;621;-60
2023/03/05 01:41:35;;;;;;;;;;;;;;;12.77;70.22;101855.63;1260184;23;661;-61
2023/03/05 01:42:25;;;;;;;;;;;;;;;12.76;69.56;101851.22;1265166;23;649;-61
2023/03/05 01:43:16;;;;;;;;;;;;;;;12.75;69.26;101837.94;1260509;23;782;-61
2023/03/05 01:44:06;;;;;;;;;;;;;;;12.76;69.51;101850.38;1259573;23;649;-61
2023/03/05 01:44:56;;;;;;;;;;;;;;;12.75;69.51;101849.50;1260370;23;776;-62
2023/03/05 01:45:47;;;;;;;;;;;;;;;12.75;70.17;101848.63;1259579;23;625;-61
2023/03/05 01:46:37;;;;;;;;;;;;;;;12.74;69.95;101845.09;1265549;23;608;-61
2023/03/05 01:47:28;;;;;;;;;;;;;;;12.74;70.22;101845.09;1266260;23;695;-62
2023/03/05 01:48:18;;;;;;;;;;;;;;;12.73;69.41;101837.16;1265402;23;646;-61
2023/03/05 01:49:09;;;;;;;;;;;;;;;12.73;69.68;101840.69;1265549;23;610;-61
2023/03/05 01:49:59;;;;;;;;;;;;;;;12.72;70.10;101838.97;1265601;23;618;-61
2023/03/05 01:50:49;;;;;;;;;;;;;;;12.73;70.06;101837.16;1266208;23;669;-62
2023/03/05 01:51:40;;;;;;;;;;;;;;;12.74;69.44;101829.06;1265495;23;642;-61
2023/03/05 01:52:30;;;;;;;;;;;;;;;12.73;70.26;101824.66;1265397;23;646;-61
2023/03/05 01:53:21;;;;;;;;;;;;;;;12.73;69.55;101831.81;1265474;23;689;-61
2023/03/05 01:54:11;;;;;;;;;;;;;;;12.73;69.48;101826.47;1265275;23;598;-62
2023/03/05 01:55:02;;;;;;;;;;;;;;;12.73;69.78;101823.78;1265422;23;732;-61
2023/03/05 01:55:53;;;;;;;;;;;;;;;12.72;69.48;101828.28;1266613;23;629;-61
2023/03/05 01:56:43;;;;;;;;;;;;;;;12.73;69.77;101830.00;1265709;23;784;-61
2023/03/05 01:57:33;;;;;;;;;;;;;;;12.72;70.31;101825.59;1260918;23;717;-61
2023/03/05 01:58:24;;;;;;;;;;;;;;;12.71;70.32;101821.25;1259713;23;613;-61
2023/03/05 01:59:14;;;;;;;;;;;;;;;12.73;69.42;101821.97;1265310;23;658;-61
2023/03/05 02:00:05;;;;;;;;;;;;;;;12.72;69.73;101825.59;1266391;23;613;-61
2023/03/05 02:00:55;;;;;;;;;;;;;;;12.72;69.39;101824.78;1265658;23;653;-61
2023/03/05 02:01:46;;;;;;;;;;;;;;;12.71;70.18;101813.22;1265356;23;677;-61
2023/03/05 02:02:36;;;;;;;;;;;;;;;12.73;70.16;101823.78;1265584;23;653;-61
2023/03/05 02:03:26;;;;;;;;;;;;;;;12.71;70.29;101818.56;1265283;23;614;-61
2023/03/05 02:04:18;;;;;;;;;;;;;;;12.71;69.56;101818.56;1265453;23;677;-61
2023/03/05 02:05:08;;;;;;;;;;;;;;;12.69;69.52;101807.09;1260584;23;755;-61
2023/03/05 02:05:59;;;;;;;;;;;;;;;12.69;69.88;101812.44;1260587;23;643;-61
2023/03/05 02:06:49;;;;;;;;;;;;;;;12.68;70.20;101805.38;1266917;23;692;-61
2023/03/05 02:07:41;;;;;;;;;;;;;;;12.69;69.71;101809.75;1265368;23;624;-61
2023/03/05 02:08:32;;;;;;;;;;;;;;;12.69;70.34;101807.09;1265540;23;661;-61
2023/03/05 02:09:22;;;;;;;;;;;;;;;12.70;70.21;101808.81;1265067;23;761;-61
2023/03/05 02:10:13;;;;;;;;;;;;;;;12.67;69.46;101808.97;1265500;23;626;-61
2023/03/05 02:11:03;;;;;;;;;;;;;;;12.68;69.83;101802.69;1265158;23;657;-61
2023/03/05 02:11:54;;;;;;;;;;;;;;;12.68;70.22;101799.16;1265440;23;642;-61
2023/03/05 02:12:44;;;;;;;;;;;;;;;12.68;69.88;101805.38;1265142;23;645;-61
2023/03/05 02:13:37;;;;;;;;;;;;;;;12.67;70.43;101794.75;1265662;23;667;-61
2023/03/05 02:14:27;;;;;;;;;;;;;;;12.67;70.28;101798.28;1266515;23;673;-61
2023/03/05 02:15:18;;;;;;;;;;;;;;;12.68;69.46;101792.00;1266155;23;617;-61
2023/03/05 02:16:08;;;;;;;;;;;;;;;12.68;69.48;101789.31;1266431;23;616;-61
2023/03/05 02:16:58;;;;;;;;;;;;;;;12.67;69.74;101790.25;1265599;23;661;-61
2023/03/05 02:17:49;;;;;;;;;;;;;;;12.68;70.15;101792.00;1265879;23;681;-61
2023/03/05 02:18:39;;;;;;;;;;;;;;;12.67;70.23;101786.72;1265387;23;642;-61
2023/03/05 02:19:30;;;;;;;;;;;;;;;12.66;69.91;101785.88;1266289;23;664;-62
2023/03/05 02:20:20;;;;;;;;;;;;;;;12.67;70.09;101781.38;1265263;23;624;-61
2023/03/05 02:21:11;;;;;;;;;;;;;;;12.67;70.43;101792.94;1266184;23;626;-61
2023/03/05 02:22:01;;;;;;;;;;;;;;;12.68;69.64;101789.31;1265503;23;642;-61
2023/03/05 02:22:52;;;;;;;;;;;;;;;12.69;70.52;101785.69;1265367;23;687;-61
2023/03/05 02:23:42;;;;;;;;;;;;;;;12.69;70.11;101785.69;1265873;23;681;-61
2023/03/05 02:24:32;;;;;;;;;;;;;;;12.69;70.37;101788.38;1265304;23;631;-61
2023/03/05 02:25:23;;;;;;;;;;;;;;;12.69;70.10;101780.34;1265328;23;610;-61
2023/03/05 02:26:13;;;;;;;;;;;;;;;12.69;69.98;101780.34;1265492;23;614;-61
2023/03/05 02:27:04;;;;;;;;;;;;;;;12.68;69.74;101773.28;1260775;23;1241;-61
2023/03/05 02:27:54;;;;;;;;;;;;;;;12.69;69.44;101771.47;1259736;23;669;-61
2023/03/05 02:28:45;;;;;;;;;;;;;;;12.68;70.15;101778.63;1267359;23;639;-61
2023/03/05 02:29:35;;;;;;;;;;;;;;;12.68;69.36;101767.91;1260701;23;657;-61
2023/03/05 02:30:26;;;;;;;;;;;;;;;12.67;70.52;101766.19;1260308;23;1942;-61
2023/03/05 02:31:16;;;;;;;;;;;;;;;12.67;70.25;101763.53;1265832;23;657;-61
2023/03/05 02:32:08;;;;;;;;;;;;;;;12.67;69.74;101768.88;1265630;23;614;-60
2023/03/05 02:32:58;;;;;;;;;;;;;;;12.68;70.26;101765.25;1266490;23;661;-60
2023/03/05 02:33:49;;;;;;;;;;;;;;;12.68;70.14;101767.91;1265668;23;661;-60
2023/03/05 02:34:39;;;;;;;;;;;;;;;12.69;70.55;101766.09;1266086;23;672;-61
2023/03/05 02:35:30;;;;;;;;;;;;;;;12.70;70.54;101759.81;1266662;23;637;-60
2023/03/05 02:36:20;;;;;;;;;;;;;;;12.70;69.81;101768.69;1265502;23;642;-61
2023/03/05 02:37:11;;;;;;;;;;;;;;;12.70;69.97;101759.81;1260695;23;1230;-61
2023/03/05 02:38:01;;;;;;;;;;;;;;;12.68;70.20;101761.72;1260080;23;610;-61
2023/03/05 02:38:52;;;;;;;;;;;;;;;12.68;70.68;101765.25;1260870;23;668;-60
2023/03/05 02:39:42;;;;;;;;;;;;;;;12.67;69.83;101766.19;1260987;23;626;-60
2023/03/05 02:40:33;;;;;;;;;;;;;;;12.68;70.71;101759.03;1266290;23;676;-61
2023/03/05 02:41:23;;;;;;;;;;;;;;;12.68;69.80;101756.38;1265788;23;630;-60
2023/03/05 02:42:14;;;;;;;;;;;;;;;12.68;69.83;101765.25;1266952;23;637;-60
2023/03/05 02:43:04;;;;;;;;;;;;;;;12.67;69.67;101755.50;1266635;23;660;-60
2023/03/05 02:43:55;;;;;;;;;;;;;;;12.68;69.67;101765.25;1266294;23;649;-60
2023/03/05 02:44:45;;;;;;;;;;;;;;;12.68;70.61;101757.22;1266544;23;630;-61
2023/03/05 02:45:35;;;;;;;;;;;;;;;12.67;70.29;101755.50;1266550;23;785;-60
2023/03/05 02:46:26;;;;;;;;;;;;;;;12.68;70.31;101759.03;1265782;23;645;-60
2023/03/05 02:47:16;;;;;;;;;;;;;;;12.68;69.93;101756.38;1265660;23;662;-60
2023/03/05 02:48:07;;;;;;;;;;;;;;;12.68;69.92;101751.00;1260898;23;685;-61
2023/03/05 02:48:57;;;;;;;;;;;;;;;12.68;70.13;101754.56;1259993;23;632;-61
2023/03/05 02:49:48;;;;;;;;;;;;;;;12.69;69.88;101744.72;1260818;23;656;-62
2023/03/05 02:50:38;;;;;;;;;;;;;;;12.68;70.28;101745.66;1261277;23;1951;-60
2023/03/05 02:51:29;;;;;;;;;;;;;;;12.67;70.29;101739.44;1265962;23;643;-60
2023/03/05 02:52:19;;;;;;;;;;;;;;;12.68;69.76;101746.53;1261234;23;696;-62
2023/03/05 02:53:09;;;;;;;;;;;;;;;12.67;69.90;101744.81;1260032;23;837;-60
2023/03/05 02:54:00;;;;;;;;;;;;;;;12.67;70.14;101743.94;1265788;23;684;-60
2023/03/05 02:54:50;;;;;;;;;;;;;;;12.65;70.54;101740.50;1265645;23;751;-62
2023/03/05 02:55:41;;;;;;;;;;;;;;;12.65;70.57;101736.00;1260954;23;645;-60
2023/03/05 02:56:31;;;;;;;;;;;;;;;12.65;69.67;101735.16;1260312;23;617;-60
2023/03/05 02:57:22;;;;;;;;;;;;;;;12.66;69.69;101736.88;1265499;23;634;-60
2023/03/05 02:58:12;;;;;;;;;;;;;;;12.66;69.71;101736.88;1265402;23;630;-61
2023/03/05 02:59:02;;;;;;;;;;;;;;;12.65;69.63;101736.00;1265595;23;614;-61
2023/03/05 02:59:53;;;;;;;;;;;;;;;12.66;69.69;101737.72;1265828;23;680;-61
2023/03/05 03:00:45;;;;;;;;;;;;;;;12.66;70.50;101732.38;1265608;23;665;-61
2023/03/05 03:01:35;;;;;;;;;;;;;;;12.66;70.62;101735.06;1265675;23;640;-60
2023/03/05 03:02:26;;;;;;;;;;;;;;;12.65;70.39;101725.31;1266345;23;632;-60
2023/03/05 03:03:16;;;;;;;;;;;;;;;12.66;70.63;101732.38;1266347;23;649;-61
2023/03/05 03:04:07;;;;;;;;;;;;;;;12.66;69.66;101731.53;1266245;23;621;-60
2023/03/05 03:04:57;;;;;;;;;;;;;;;12.65;69.60;101733.34;1266835;23;644;-60
2023/03/05 03:05:48;;;;;;;;;;;;;;;12.66;69.74;101728.84;1265626;23;661;-61
2023/03/05 03:06:38;;;;;;;;;;;;;;;12.64;69.93;101723.59;1266601;23;606;-60
2023/03/05 03:07:28;;;;;;;;;;;;;;;12.62;70.34;101720.13;1265395;23;653;-61
2023/03/05 03:08:19;;;;;;;;;;;;;;;12.61;69.59;101721.09;1265932;23;817;-60
2023/03/05 03:09:09;;;;;;;;;;;;;;;12.60;70.48;101716.69;1265593;23;628;-60
2023/03/05 03:10:00;;;;;;;;;;;;;;;12.61;69.58;101722.91;1265837;23;1018;-61
2023/03/05 03:10:50;;;;;;;;;;;;;;;12.61;69.67;101720.22;1265870;23;1897;-61
2023/03/05 03:11:40;;;;;;;;;;;;;;;12.59;70.55;101714.97;1266533;23;645;-61
2023/03/05 03:12:31;;;;;;;;;;;;;;;12.60;69.77;101721.19;1266552;23;637;-60
2023/03/05 03:13:21;;;;;;;;;;;;;;;12.61;69.64;101721.09;1266436;23;747;-61
2023/03/05 03:14:12;;;;;;;;;;;;;;;12.61;69.95;101717.56;1265624;23;679;-61
2023/03/05 03:15:02;;;;;;;;;;;;;;;12.60;70.15;101716.69;1260818;23;604;-61
2023/03/05 03:15:53;;;;;;;;;;;;;;;12.59;70.04;101714.97;1260028;23;649;-61
2023/03/05 03:16:43;;;;;;;;;;;;;;;12.58;69.58;101713.25;1265776;23;661;-61
2023/03/05 03:17:33;;;;;;;;;;;;;;;12.59;70.31;101704.28;1265629;23;653;-60
2023/03/05 03:18:24;;;;;;;;;;;;;;;12.59;70.06;101711.44;1266454;23;629;-61
2023/03/05 03:19:14;;;;;;;;;;;;;;;12.60;70.05;101705.13;1266445;23;688;-60
2023/03/05 03:20:05;;;;;;;;;;;;;;;12.59;69.79;101706.94;1265829;23;753;-60
2023/03/05 03:20:55;;;;;;;;;;;;;;;12.60;69.62;101710.47;1266052;23;661;-60
2023/03/05 03:21:45;;;;;;;;;;;;;;;12.57;69.72;101703.50;1265542;23;645;-61
2023/03/05 03:22:36;;;;;;;;;;;;;;;12.57;70.29;101708.84;1265853;23;644;-60
2023/03/05 03:23:26;;;;;;;;;;;;;;;12.57;69.93;101706.16;1265445;23;626;-61
2023/03/05 03:24:17;;;;;;;;;;;;;;;12.57;70.17;101699.97;1265728;23;602;-61
2023/03/05 03:25:07;;;;;;;;;;;;;;;12.58;69.91;101712.38;1265220;23;638;-60
2023/03/05 03:25:58;;;;;;;;;;;;;;;12.58;69.54;101710.56;1265620;23;618;-60
2023/03/05 03:26:48;;;;;;;;;;;;;;;12.58;69.90;101705.22;1265670;23;621;-61
2023/03/05 03:27:39;;;;;;;;;;;;;;;12.58;69.40;101707.91;1260956;23;657;-60
2023/03/05 03:28:29;;;;;;;;;;;;;;;12.57;70.24;101703.50;1260817;23;645;-60
2023/03/05 03:29:20;;;;;;;;;;;;;;;12.57;70.02;101702.63;1265559;23;610;-61
2023/03/05 03:30:10;;;;;;;;;;;;;;;12.57;70.13;101708.84;1265700;23;769;-60
2023/03/05 03:31:00;;;;;;;;;;;;;;;12.55;69.98;101708.06;1265760;23;618;-60
2023/03/05 03:31:51;;;;;;;;;;;;;;;12.55;69.79;101702.72;1265846;23;705;-60
2023/03/05 03:32:41;;;;;;;;;;;;;;;12.55;69.40;101708.06;1265650;23;669;-61
2023/03/05 03:33:32;;;;;;;;;;;;;;;12.54;70.20;101702.84;1266450;23;649;-60
2023/03/05 03:34:22;;;;;;;;;;;;;;;12.54;70.37;101705.53;1265839;23;649;-60
2023/03/05 03:35:13;;;;;;;;;;;;;;;12.53;69.58;101693.97;1265341;23;637;-61
2023/03/05 03:36:03;;;;;;;;;;;;;;;12.55;69.92;101701.88;1265527;23;677;-60
2023/03/05 03:36:53;;;;;;;;;;;;;;;12.53;69.50;101699.31;1260795;23;1188;-60
2023/03/05 03:37:44;;;;;;;;;;;;;;;12.53;70.41;101699.31;1259983;23;684;-60
2023/03/05 03:38:34;;;;;;;;;;;;;;;12.54;69.84;101694.81;1266688;23;661;-60
2023/03/05 03:39:25;;;;;;;;;;;;;;;12.56;70.00;101692.91;1265472;23;632;-61
2023/03/05 03:40:15;;;;;;;;;;;;;;;12.56;69.59;101693.75;1266035;23;633;-61
2023/03/05 03:41:06;;;;;;;;;;;;;;;12.54;69.36;101690.31;1265791;23;629;-60
2023/03/05 03:41:57;;;;;;;;;;;;;;;12.54;69.90;101692.97;1266142;23;644;-60
2023/03/05 03:42:47;;;;;;;;;;;;;;;12.55;70.25;101689.34;1265714;23;645;-60
2023/03/05 03:43:38;;;;;;;;;;;;;;;12.54;69.98;101690.31;1266489;23;646;-60
2023/03/05 03:44:28;;;;;;;;;;;;;;;12.56;70.47;101688.41;1265628;23;658;-61
2023/03/05 03:45:20;;;;;;;;;;;;;;;12.57;70.31;101689.28;1265481;23;669;-60
2023/03/05 03:46:10;;;;;;;;;;;;;;;12.56;69.86;101688.41;1266534;23;585;-61
2023/03/05 03:47:01;;;;;;;;;;;;;;;12.55;70.09;101684.00;1265571;23;635;-60
2023/03/05 03:47:51;;;;;;;;;;;;;;;12.54;69.52;101687.63;1265622;23;675;-60
2023/03/05 03:48:42;;;;;;;;;;;;;;;12.54;70.40;101682.28;1265880;23;639;-60
2023/03/05 03:49:32;;;;;;;;;;;;;;;12.54;70.53;101682.28;1266000;23;657;-60
2023/03/05 03:50:23;;;;;;;;;;;;;;;12.54;70.43;101684.97;1265537;23;599;-61
2023/03/05 03:51:14;;;;;;;;;;;;;;;12.54;69.67;101674.28;1266535;23;655;-62
2023/03/05 03:52:04;;;;;;;;;;;;;;;12.54;70.29;101678.78;1265569;23;638;-60
2023/03/05 03:52:55;;;;;;;;;;;;;;;12.54;69.53;101684.13;1260830;23;657;-61
2023/03/05 03:53:45;;;;;;;;;;;;;;;12.53;70.43;101680.59;1260889;23;609;-61
2023/03/05 03:54:36;;;;;;;;;;;;;;;12.52;70.05;101682.41;1260712;23;626;-61
2023/03/05 03:55:26;;;;;;;;;;;;;;;12.53;70.26;101683.28;1260656;23;697;-61
2023/03/05 03:56:16;;;;;;;;;;;;;;;12.52;70.23;101678.88;1259165;23;747;-60
2023/03/05 03:57:07;;;;;;;;;;;;;;;12.50;69.96;101678.09;1260039;23;658;-60
2023/03/05 03:57:57;;;;;;;;;;;;;;;12.51;69.85;101674.47;1266325;23;645;-60
2023/03/05 03:58:48;;;;;;;;;;;;;;;12.49;69.58;101674.56;1265833;23;650;-61
2023/03/05 03:59:38;;;;;;;;;;;;;;;12.49;70.50;101679.91;1266578;23;688;-61
2023/03/05 04:00:28;;;;;;;;;;;;;;;12.51;70.59;101667.31;1265187;23;670;-61
2023/03/05 04:01:19;;;;;;;;;;;;;;;12.54;69.87;101679.63;1265487;23;630;-61
2023/03/05 04:02:09;;;;;;;;;;;;;;;12.54;69.92;101674.28;1265709;23;657;-61
2023/03/05 04:03:00;;;;;;;;;;;;;;;12.54;69.91;101665.41;1260944;23;727;-62
2023/03/05 04:03:50;;;;;;;;;;;;;;;12.53;69.87;101667.22;1255177;23;702;-62
2023/03/05 04:04:41;;;;;;;;;;;;;;;12.53;70.68;101664.56;1260750;23;643;-61
2023/03/05 04:05:31;;;;;;;;;;;;;;;12.54;70.18;101665.41;1265893;23;646;-60
2023/03/05 04:06:21;;;;;;;;;;;;;;;12.52;69.81;101666.38;1260799;23;648;-61
2023/03/05 04:07:12;;;;;;;;;;;;;;;12.53;70.37;101661.88;1260105;23;676;-61
2023/03/05 04:08:02;;;;;;;;;;;;;;;12.52;69.63;101668.19;1265207;23;625;-62
2023/03/05 04:08:53;;;;;;;;;;;;;;;12.53;70.04;101664.56;1265656;23;637;-62
2023/03/05 04:09:43;;;;;;;;;;;;;;;12.53;70.03;101664.56;1265575;23;646;-61
2023/03/05 04:10:34;;;;;;;;;;;;;;;12.52;70.01;101660.16;1265460;23;1932;-62
2023/03/05 04:11:24;;;;;;;;;;;;;;;12.52;70.02;101660.16;1266499;23;633;-62
2023/03/05 04:12:17;;;;;;;;;;;;;;;12.52;70.24;101655.69;1265785;23;658;-62
2023/03/05 04:13:07;;;;;;;;;;;;;;;12.51;69.70;101664.66;1265852;23;634;-62
2023/03/05 04:13:57;;;;;;;;;;;;;;;12.50;70.14;101657.56;1265470;23;649;-63
2023/03/05 04:14:48;;;;;;;;;;;;;;;12.52;70.08;101660.16;1266347;23;585;-62
2023/03/05 04:15:38;;;;;;;;;;;;;;;12.51;69.92;101658.44;1265775;23;744;-62
2023/03/05 04:16:29;;;;;;;;;;;;;;;12.52;70.15;101649.47;1265659;23;630;-61
2023/03/05 04:17:19;;;;;;;;;;;;;;;12.51;69.50;101653.94;1265902;23;685;-61
2023/03/05 04:18:09;;;;;;;;;;;;;;;12.52;69.48;101655.69;1266169;23;626;-61
2023/03/05 04:19:00;;;;;;;;;;;;;;;12.51;69.85;101653.09;1265743;23;640;-61
2023/03/05 04:19:50;;;;;;;;;;;;;;;12.50;69.72;101659.38;1266211;23;685;-61
2023/03/05 04:20:41;;;;;;;;;;;;;;;12.51;69.58;101658.44;1265853;23;607;-62
2023/03/05 04:21:31;;;;;;;;;;;;;;;12.49;70.31;101653.19;1265902;23;629;-61
2023/03/05 04:22:22;;;;;;;;;;;;;;;12.49;70.45;101657.66;1265437;23;653;-61
2023/03/05 04:23:12;;;;;;;;;;;;;;;12.48;70.04;101654.13;1265694;23;657;-61
2023/03/05 04:24:02;;;;;;;;;;;;;;;12.48;70.03;101655.94;1265901;23;627;-61
2023/03/05 04:24:53;;;;;;;;;;;;;;;12.49;70.10;101657.66;1265980;23;670;-60
2023/03/05 04:25:43;;;;;;;;;;;;;;;12.50;69.76;101659.38;1265659;23;692;-62
2023/03/05 04:26:34;;;;;;;;;;;;;;;12.48;69.48;101659.47;1265523;23;617;-62